sensor_id;sensor_type;location;lat;lon;timestamp;P1;durP1;ratioP1;P2;durP2;ratioP2
4122;SDS011;2075;51.062;6.920;2022-08-02T00:01:44;4.93;;;4.10;;
4122;SDS011;2075;51.062;6.920;2022-08-02T00:04:29;4.97;;;4.00;;
4122;SDS011;2075;51.062;6.920;2022-08-02T00:07:16;4.53;;;3.83;;
4122;SDS011;2075;51.062;6.920;2022-08-02T00:10:03;6.93;;;4.10;;
4122;SDS011;2075;51.062;6.920;2022-08-02T00:12:49;4.67;;;4.23;;
4122;SDS011;2075;51.062;6.920;2022-08-02T00:15:35;4.60;;;3.90;;
4122;SDS011;2075;51.062;6.920;2022-08-02T00:18:21;6.70;;;4.00;;
4122;SDS011;2075;51.062;6.920;2022-08-02T00:21:06;9.80;;;4.90;;
4122;SDS011;2075;51.062;6.920;2022-08-02T00:23:53;4.80;;;4.30;;
4122;SDS011;2075;51.062;6.920;2022-08-02T00:26:38;4.30;;;3.90;;
4122;SDS011;2075;51.062;6.920;2022-08-02T00:29:24;6.20;;;4.77;;
4122;SDS011;2075;51.062;6.920;2022-08-02T00:32:09;7.20;;;4.80;;
4122;SDS011;2075;51.062;6.920;2022-08-02T00:34:55;4.27;;;3.87;;
4122;SDS011;2075;51.062;6.920;2022-08-02T00:37:40;7.47;;;4.47;;
4122;SDS011;2075;51.062;6.920;2022-08-02T00:40:27;7.30;;;5.20;;
4122;SDS011;2075;51.062;6.920;2022-08-02T00:43:12;6.90;;;4.90;;
4122;SDS011;2075;51.062;6.920;2022-08-02T00:45:58;8.80;;;4.80;;
4122;SDS011;2075;51.062;6.920;2022-08-02T00:48:43;7.20;;;5.23;;
4122;SDS011;2075;51.062;6.920;2022-08-02T00:51:29;5.57;;;4.97;;
4122;SDS011;2075;51.062;6.920;2022-08-02T00:54:14;5.37;;;4.87;;
4122;SDS011;2075;51.062;6.920;2022-08-02T00:57:01;5.57;;;5.07;;
4122;SDS011;2075;51.062;6.920;2022-08-02T00:59:47;7.00;;;5.07;;
4122;SDS011;2075;51.062;6.920;2022-08-02T01:02:32;10.23;;;5.63;;
4122;SDS011;2075;51.062;6.920;2022-08-02T01:05:17;5.70;;;5.03;;
4122;SDS011;2075;51.062;6.920;2022-08-02T01:08:03;6.87;;;5.27;;
4122;SDS011;2075;51.062;6.920;2022-08-02T01:10:49;6.67;;;5.53;;
4122;SDS011;2075;51.062;6.920;2022-08-02T01:13:35;8.13;;;6.10;;
4122;SDS011;2075;51.062;6.920;2022-08-02T01:16:22;9.30;;;5.67;;
4122;SDS011;2075;51.062;6.920;2022-08-02T01:19:20;10.03;;;6.03;;
4122;SDS011;2075;51.062;6.920;2022-08-02T01:29:09;10.17;;;6.43;;
4122;SDS011;2075;51.062;6.920;2022-08-02T01:32:03;7.90;;;6.87;;
4122;SDS011;2075;51.062;6.920;2022-08-02T01:34:53;9.10;;;7.17;;
4122;SDS011;2075;51.062;6.920;2022-08-02T01:37:46;11.60;;;6.77;;
4122;SDS011;2075;51.062;6.920;2022-08-02T01:40:36;9.00;;;6.37;;
4122;SDS011;2075;51.062;6.920;2022-08-02T01:43:25;7.23;;;5.20;;
4122;SDS011;2075;51.062;6.920;2022-08-02T01:46:14;9.23;;;6.57;;
4122;SDS011;2075;51.062;6.920;2022-08-02T01:49:02;10.83;;;7.53;;
4122;SDS011;2075;51.062;6.920;2022-08-02T01:51:50;7.30;;;6.37;;
4122;SDS011;2075;51.062;6.920;2022-08-02T01:54:56;14.00;;;6.97;;
4122;SDS011;2075;51.062;6.920;2022-08-02T01:57:46;8.40;;;6.27;;
4122;SDS011;2075;51.062;6.920;2022-08-02T02:00:35;7.77;;;6.77;;
4122;SDS011;2075;51.062;6.920;2022-08-02T02:03:24;8.93;;;6.33;;
4122;SDS011;2075;51.062;6.920;2022-08-02T02:06:11;9.47;;;7.10;;
4122;SDS011;2075;51.062;6.920;2022-08-02T02:08:57;8.80;;;6.50;;
4122;SDS011;2075;51.062;6.920;2022-08-02T02:11:44;9.33;;;6.80;;
4122;SDS011;2075;51.062;6.920;2022-08-02T02:14:31;8.17;;;6.97;;
4122;SDS011;2075;51.062;6.920;2022-08-02T02:17:19;14.17;;;7.10;;
4122;SDS011;2075;51.062;6.920;2022-08-02T02:20:07;6.97;;;6.27;;
4122;SDS011;2075;51.062;6.920;2022-08-02T02:22:57;7.50;;;6.70;;
4122;SDS011;2075;51.062;6.920;2022-08-02T02:25:43;11.27;;;7.00;;
4122;SDS011;2075;51.062;6.920;2022-08-02T02:28:29;11.90;;;7.10;;
4122;SDS011;2075;51.062;6.920;2022-08-02T02:31:16;10.23;;;7.40;;
4122;SDS011;2075;51.062;6.920;2022-08-02T02:34:04;11.40;;;7.47;;
4122;SDS011;2075;51.062;6.920;2022-08-02T02:36:55;7.90;;;6.70;;
4122;SDS011;2075;51.062;6.920;2022-08-02T02:39:44;9.40;;;6.97;;
4122;SDS011;2075;51.062;6.920;2022-08-02T02:42:32;9.10;;;7.00;;
4122;SDS011;2075;51.062;6.920;2022-08-02T02:45:19;9.50;;;7.40;;
4122;SDS011;2075;51.062;6.920;2022-08-02T02:48:06;8.40;;;7.10;;
4122;SDS011;2075;51.062;6.920;2022-08-02T02:50:53;10.87;;;7.13;;
4122;SDS011;2075;51.062;6.920;2022-08-02T02:53:40;8.60;;;7.17;;
4122;SDS011;2075;51.062;6.920;2022-08-02T02:56:27;8.43;;;7.30;;
4122;SDS011;2075;51.062;6.920;2022-08-02T02:59:13;9.83;;;6.80;;
4122;SDS011;2075;51.062;6.920;2022-08-02T03:01:59;7.97;;;6.93;;
4122;SDS011;2075;51.062;6.920;2022-08-02T03:04:45;9.93;;;7.50;;
4122;SDS011;2075;51.062;6.920;2022-08-02T03:07:31;8.60;;;7.73;;
4122;SDS011;2075;51.062;6.920;2022-08-02T03:10:19;13.90;;;7.80;;
4122;SDS011;2075;51.062;6.920;2022-08-02T03:13:04;9.73;;;7.83;;
4122;SDS011;2075;51.062;6.920;2022-08-02T03:15:50;9.87;;;7.53;;
4122;SDS011;2075;51.062;6.920;2022-08-02T03:18:37;8.37;;;7.57;;
4122;SDS011;2075;51.062;6.920;2022-08-02T03:21:23;11.63;;;7.93;;
4122;SDS011;2075;51.062;6.920;2022-08-02T03:24:08;11.67;;;7.90;;
4122;SDS011;2075;51.062;6.920;2022-08-02T03:26:56;9.57;;;8.57;;
4122;SDS011;2075;51.062;6.920;2022-08-02T03:29:41;11.60;;;8.97;;
4122;SDS011;2075;51.062;6.920;2022-08-02T03:32:26;14.60;;;9.10;;
4122;SDS011;2075;51.062;6.920;2022-08-02T03:35:13;11.87;;;8.40;;
4122;SDS011;2075;51.062;6.920;2022-08-02T03:38:00;13.97;;;9.40;;
4122;SDS011;2075;51.062;6.920;2022-08-02T03:40:46;14.73;;;9.43;;
4122;SDS011;2075;51.062;6.920;2022-08-02T03:43:34;11.43;;;8.50;;
4122;SDS011;2075;51.062;6.920;2022-08-02T03:46:21;12.87;;;9.67;;
4122;SDS011;2075;51.062;6.920;2022-08-02T03:49:08;20.17;;;9.47;;
4122;SDS011;2075;51.062;6.920;2022-08-02T03:51:55;11.70;;;8.90;;
4122;SDS011;2075;51.062;6.920;2022-08-02T03:54:41;13.00;;;10.57;;
4122;SDS011;2075;51.062;6.920;2022-08-02T03:57:26;12.03;;;10.23;;
4122;SDS011;2075;51.062;6.920;2022-08-02T04:00:16;13.93;;;10.10;;
4122;SDS011;2075;51.062;6.920;2022-08-02T04:03:03;15.67;;;11.70;;
4122;SDS011;2075;51.062;6.920;2022-08-02T04:05:49;14.90;;;10.33;;
4122;SDS011;2075;51.062;6.920;2022-08-02T04:08:35;12.50;;;10.63;;
4122;SDS011;2075;51.062;6.920;2022-08-02T04:11:20;16.77;;;10.30;;
4122;SDS011;2075;51.062;6.920;2022-08-02T04:14:15;20.90;;;12.00;;
4122;SDS011;2075;51.062;6.920;2022-08-02T04:17:03;15.07;;;10.80;;
4122;SDS011;2075;51.062;6.920;2022-08-02T04:19:52;18.10;;;11.33;;
4122;SDS011;2075;51.062;6.920;2022-08-02T04:22:46;14.30;;;11.23;;
4122;SDS011;2075;51.062;6.920;2022-08-02T04:25:35;15.30;;;11.83;;
4122;SDS011;2075;51.062;6.920;2022-08-02T04:28:22;19.27;;;11.67;;
4122;SDS011;2075;51.062;6.920;2022-08-02T04:31:09;16.03;;;11.33;;
4122;SDS011;2075;51.062;6.920;2022-08-02T04:33:56;22.50;;;11.40;;
4122;SDS011;2075;51.062;6.920;2022-08-02T04:36:41;15.53;;;11.13;;
4122;SDS011;2075;51.062;6.920;2022-08-02T04:39:27;14.50;;;10.47;;
4122;SDS011;2075;51.062;6.920;2022-08-02T04:42:18;18.20;;;11.10;;
4122;SDS011;2075;51.062;6.920;2022-08-02T04:45:05;17.73;;;10.83;;
4122;SDS011;2075;51.062;6.920;2022-08-02T04:47:52;16.90;;;12.67;;
4122;SDS011;2075;51.062;6.920;2022-08-02T04:50:39;18.17;;;11.80;;
4122;SDS011;2075;51.062;6.920;2022-08-02T04:53:24;17.30;;;11.50;;
4122;SDS011;2075;51.062;6.920;2022-08-02T04:56:10;18.90;;;11.63;;
4122;SDS011;2075;51.062;6.920;2022-08-02T04:58:56;25.43;;;12.97;;
4122;SDS011;2075;51.062;6.920;2022-08-02T05:01:41;22.70;;;11.57;;
4122;SDS011;2075;51.062;6.920;2022-08-02T05:04:27;21.07;;;12.70;;
4122;SDS011;2075;51.062;6.920;2022-08-02T05:07:13;21.70;;;13.40;;
4122;SDS011;2075;51.062;6.920;2022-08-02T05:09:59;18.43;;;11.37;;
4122;SDS011;2075;51.062;6.920;2022-08-02T05:12:44;14.00;;;10.70;;
4122;SDS011;2075;51.062;6.920;2022-08-02T05:15:30;16.70;;;10.67;;
4122;SDS011;2075;51.062;6.920;2022-08-02T05:18:15;18.23;;;11.37;;
4122;SDS011;2075;51.062;6.920;2022-08-02T05:21:01;15.23;;;10.00;;
4122;SDS011;2075;51.062;6.920;2022-08-02T05:23:48;15.73;;;10.07;;
4122;SDS011;2075;51.062;6.920;2022-08-02T05:26:33;14.90;;;10.23;;
4122;SDS011;2075;51.062;6.920;2022-08-02T05:29:18;13.70;;;9.07;;
4122;SDS011;2075;51.062;6.920;2022-08-02T05:32:05;10.30;;;8.00;;
4122;SDS011;2075;51.062;6.920;2022-08-02T05:34:51;14.80;;;7.57;;
4122;SDS011;2075;51.062;6.920;2022-08-02T05:37:37;10.07;;;6.80;;
4122;SDS011;2075;51.062;6.920;2022-08-02T05:40:24;7.10;;;6.40;;
4122;SDS011;2075;51.062;6.920;2022-08-02T05:43:10;7.13;;;6.40;;
4122;SDS011;2075;51.062;6.920;2022-08-02T05:45:57;14.40;;;6.00;;
4122;SDS011;2075;51.062;6.920;2022-08-02T05:48:42;8.53;;;5.80;;
4122;SDS011;2075;51.062;6.920;2022-08-02T05:51:28;6.60;;;6.00;;
4122;SDS011;2075;51.062;6.920;2022-08-02T05:54:22;8.40;;;5.40;;
4122;SDS011;2075;51.062;6.920;2022-08-02T05:57:20;10.90;;;5.03;;
4122;SDS011;2075;51.062;6.920;2022-08-02T06:00:11;9.40;;;8.17;;
4122;SDS011;2075;51.062;6.920;2022-08-02T06:03:01;34.13;;;18.53;;
4122;SDS011;2075;51.062;6.920;2022-08-02T06:06:04;14.70;;;10.37;;
4122;SDS011;2075;51.062;6.920;2022-08-02T06:08:56;10.33;;;7.27;;
4122;SDS011;2075;51.062;6.920;2022-08-02T06:11:43;8.30;;;6.50;;
4122;SDS011;2075;51.062;6.920;2022-08-02T06:14:31;5.23;;;4.83;;
4122;SDS011;2075;51.062;6.920;2022-08-02T06:17:17;5.90;;;5.30;;
4122;SDS011;2075;51.062;6.920;2022-08-02T06:20:03;6.33;;;5.03;;
4122;SDS011;2075;51.062;6.920;2022-08-02T06:22:49;5.50;;;5.10;;
4122;SDS011;2075;51.062;6.920;2022-08-02T06:25:36;7.30;;;5.00;;
4122;SDS011;2075;51.062;6.920;2022-08-02T06:28:25;6.23;;;5.60;;
4122;SDS011;2075;51.062;6.920;2022-08-02T06:31:12;8.43;;;4.90;;
4122;SDS011;2075;51.062;6.920;2022-08-02T06:33:59;5.37;;;4.87;;
4122;SDS011;2075;51.062;6.920;2022-08-02T06:36:46;5.97;;;4.80;;
4122;SDS011;2075;51.062;6.920;2022-08-02T06:39:37;5.30;;;4.80;;
4122;SDS011;2075;51.062;6.920;2022-08-02T06:42:30;5.70;;;5.20;;
4122;SDS011;2075;51.062;6.920;2022-08-02T06:45:22;5.50;;;5.10;;
4122;SDS011;2075;51.062;6.920;2022-08-02T06:48:09;5.50;;;4.40;;
4122;SDS011;2075;51.062;6.920;2022-08-02T06:50:54;5.47;;;4.97;;
4122;SDS011;2075;51.062;6.920;2022-08-02T06:53:40;4.50;;;4.10;;
4122;SDS011;2075;51.062;6.920;2022-08-02T06:56:26;4.83;;;4.53;;
4122;SDS011;2075;51.062;6.920;2022-08-02T06:59:11;5.00;;;4.70;;
4122;SDS011;2075;51.062;6.920;2022-08-02T07:01:57;9.80;;;4.50;;
4122;SDS011;2075;51.062;6.920;2022-08-02T07:04:44;8.03;;;4.43;;
4122;SDS011;2075;51.062;6.920;2022-08-02T07:07:29;5.77;;;5.27;;
4122;SDS011;2075;51.062;6.920;2022-08-02T07:10:15;4.77;;;4.37;;
4122;SDS011;2075;51.062;6.920;2022-08-02T07:13:00;6.10;;;4.50;;
4122;SDS011;2075;51.062;6.920;2022-08-02T07:15:46;5.27;;;4.77;;
4122;SDS011;2075;51.062;6.920;2022-08-02T07:18:31;6.00;;;4.03;;
4122;SDS011;2075;51.062;6.920;2022-08-02T07:21:19;9.40;;;3.93;;
4122;SDS011;2075;51.062;6.920;2022-08-02T07:24:05;6.37;;;4.30;;
4122;SDS011;2075;51.062;6.920;2022-08-02T07:26:51;4.50;;;4.10;;
4122;SDS011;2075;51.062;6.920;2022-08-02T07:29:36;5.33;;;4.20;;
4122;SDS011;2075;51.062;6.920;2022-08-02T07:32:23;7.30;;;4.70;;
4122;SDS011;2075;51.062;6.920;2022-08-02T07:35:11;4.10;;;3.80;;
4122;SDS011;2075;51.062;6.920;2022-08-02T07:37:58;6.13;;;3.77;;
4122;SDS011;2075;51.062;6.920;2022-08-02T07:40:43;5.20;;;3.90;;
4122;SDS011;2075;51.062;6.920;2022-08-02T07:43:28;7.43;;;3.70;;
4122;SDS011;2075;51.062;6.920;2022-08-02T07:46:14;4.27;;;3.97;;
4122;SDS011;2075;51.062;6.920;2022-08-02T07:48:59;4.60;;;3.60;;
4122;SDS011;2075;51.062;6.920;2022-08-02T07:51:45;3.73;;;3.53;;
4122;SDS011;2075;51.062;6.920;2022-08-02T07:54:32;4.00;;;3.50;;
4122;SDS011;2075;51.062;6.920;2022-08-02T07:57:18;4.50;;;3.30;;
4122;SDS011;2075;51.062;6.920;2022-08-02T08:00:04;8.10;;;3.10;;
4122;SDS011;2075;51.062;6.920;2022-08-02T08:02:58;4.10;;;2.83;;
4122;SDS011;2075;51.062;6.920;2022-08-02T08:05:43;3.43;;;3.23;;
4122;SDS011;2075;51.062;6.920;2022-08-02T08:08:29;6.70;;;3.13;;
4122;SDS011;2075;51.062;6.920;2022-08-02T08:11:16;5.77;;;3.47;;
4122;SDS011;2075;51.062;6.920;2022-08-02T08:14:01;3.20;;;3.00;;
4122;SDS011;2075;51.062;6.920;2022-08-02T08:16:48;3.50;;;3.30;;
4122;SDS011;2075;51.062;6.920;2022-08-02T08:19:34;4.43;;;2.93;;
4122;SDS011;2075;51.062;6.920;2022-08-02T08:22:19;9.83;;;3.00;;
4122;SDS011;2075;51.062;6.920;2022-08-02T08:25:06;2.67;;;2.50;;
4122;SDS011;2075;51.062;6.920;2022-08-02T08:27:53;2.80;;;2.60;;
4122;SDS011;2075;51.062;6.920;2022-08-02T08:30:38;3.72;;;2.50;;
4122;SDS011;2075;51.062;6.920;2022-08-02T08:33:25;3.83;;;2.60;;
4122;SDS011;2075;51.062;6.920;2022-08-02T08:36:10;3.42;;;2.50;;
4122;SDS011;2075;51.062;6.920;2022-08-02T08:38:56;5.15;;;2.78;;
4122;SDS011;2075;51.062;6.920;2022-08-02T08:41:42;6.00;;;2.22;;
4122;SDS011;2075;51.062;6.920;2022-08-02T08:44:28;2.60;;;2.40;;
4122;SDS011;2075;51.062;6.920;2022-08-02T08:47:15;2.95;;;2.40;;
4122;SDS011;2075;51.062;6.920;2022-08-02T08:50:03;4.85;;;2.50;;
4122;SDS011;2075;51.062;6.920;2022-08-02T08:52:51;2.20;;;2.20;;
4122;SDS011;2075;51.062;6.920;2022-08-02T08:55:41;4.93;;;2.90;;
4122;SDS011;2075;51.062;6.920;2022-08-02T08:58:27;2.50;;;2.40;;
4122;SDS011;2075;51.062;6.920;2022-08-02T09:01:14;4.97;;;4.72;;
4122;SDS011;2075;51.062;6.920;2022-08-02T09:04:00;7.97;;;2.38;;
4122;SDS011;2075;51.062;6.920;2022-08-02T09:06:45;3.95;;;3.65;;
4122;SDS011;2075;51.062;6.920;2022-08-02T09:09:31;3.60;;;2.47;;
4122;SDS011;2075;51.062;6.920;2022-08-02T09:12:17;6.63;;;2.70;;
4122;SDS011;2075;51.062;6.920;2022-08-02T09:15:05;4.22;;;2.60;;
4122;SDS011;2075;51.062;6.920;2022-08-02T09:17:52;5.23;;;4.13;;
4122;SDS011;2075;51.062;6.920;2022-08-02T09:20:50;6.33;;;3.63;;
4122;SDS011;2075;51.062;6.920;2022-08-02T09:23:37;7.87;;;3.13;;
4122;SDS011;2075;51.062;6.920;2022-08-02T09:26:24;4.03;;;2.73;;
4122;SDS011;2075;51.062;6.920;2022-08-02T09:29:10;3.07;;;2.80;;
4122;SDS011;2075;51.062;6.920;2022-08-02T09:32:00;3.57;;;3.20;;
4122;SDS011;2075;51.062;6.920;2022-08-02T09:34:49;7.73;;;3.07;;
4122;SDS011;2075;51.062;6.920;2022-08-02T09:37:36;2.93;;;2.73;;
4122;SDS011;2075;51.062;6.920;2022-08-02T09:40:25;3.43;;;3.33;;
4122;SDS011;2075;51.062;6.920;2022-08-02T09:43:18;5.63;;;4.47;;
4122;SDS011;2075;51.062;6.920;2022-08-02T09:46:11;15.53;;;3.13;;
4122;SDS011;2075;51.062;6.920;2022-08-02T09:48:59;3.17;;;3.07;;
4122;SDS011;2075;51.062;6.920;2022-08-02T09:51:49;7.03;;;2.97;;
4122;SDS011;2075;51.062;6.920;2022-08-02T09:54:36;6.63;;;3.20;;
4122;SDS011;2075;51.062;6.920;2022-08-02T09:57:24;3.73;;;2.63;;
4122;SDS011;2075;51.062;6.920;2022-08-02T10:00:11;3.77;;;3.47;;
4122;SDS011;2075;51.062;6.920;2022-08-02T10:03:04;6.97;;;3.50;;
4122;SDS011;2075;51.062;6.920;2022-08-02T10:05:50;3.30;;;2.70;;
4122;SDS011;2075;51.062;6.920;2022-08-02T10:08:39;5.93;;;3.30;;
4122;SDS011;2075;51.062;6.920;2022-08-02T10:11:26;5.40;;;2.90;;
4122;SDS011;2075;51.062;6.920;2022-08-02T10:14:12;4.10;;;2.20;;
4122;SDS011;2075;51.062;6.920;2022-08-02T10:16:57;3.17;;;2.87;;
4122;SDS011;2075;51.062;6.920;2022-08-02T10:19:44;3.67;;;3.37;;
4122;SDS011;2075;51.062;6.920;2022-08-02T10:22:32;3.20;;;2.83;;
4122;SDS011;2075;51.062;6.920;2022-08-02T10:25:19;6.13;;;2.90;;
4122;SDS011;2075;51.062;6.920;2022-08-02T10:28:06;3.20;;;2.77;;
4122;SDS011;2075;51.062;6.920;2022-08-02T10:30:53;3.73;;;3.53;;
4122;SDS011;2075;51.062;6.920;2022-08-02T10:33:41;2.73;;;2.63;;
4122;SDS011;2075;51.062;6.920;2022-08-02T10:36:28;3.83;;;2.40;;
4122;SDS011;2075;51.062;6.920;2022-08-02T10:39:16;2.30;;;2.23;;
4122;SDS011;2075;51.062;6.920;2022-08-02T10:42:02;3.53;;;3.33;;
4122;SDS011;2075;51.062;6.920;2022-08-02T10:44:48;3.50;;;2.80;;
4122;SDS011;2075;51.062;6.920;2022-08-02T10:48:00;5.83;;;5.30;;
4122;SDS011;2075;51.062;6.920;2022-08-02T10:50:50;5.37;;;4.97;;
4122;SDS011;2075;51.062;6.920;2022-08-02T10:53:37;2.90;;;2.70;;
4122;SDS011;2075;51.062;6.920;2022-08-02T10:56:28;2.80;;;2.70;;
4122;SDS011;2075;51.062;6.920;2022-08-02T10:59:31;8.27;;;2.70;;
4122;SDS011;2075;51.062;6.920;2022-08-02T11:02:32;2.30;;;2.10;;
4122;SDS011;2075;51.062;6.920;2022-08-02T11:05:26;4.70;;;2.40;;
4122;SDS011;2075;51.062;6.920;2022-08-02T11:08:16;2.60;;;2.40;;
4122;SDS011;2075;51.062;6.920;2022-08-02T11:11:14;2.53;;;2.43;;
4122;SDS011;2075;51.062;6.920;2022-08-02T11:14:01;9.93;;;8.93;;
4122;SDS011;2075;51.062;6.920;2022-08-02T11:17:11;9.07;;;4.03;;
4122;SDS011;2075;51.062;6.920;2022-08-02T11:20:16;4.90;;;3.60;;
4122;SDS011;2075;51.062;6.920;2022-08-02T11:29:35;4.53;;;2.43;;
4122;SDS011;2075;51.062;6.920;2022-08-02T11:32:23;2.47;;;2.37;;
4122;SDS011;2075;51.062;6.920;2022-08-02T11:35:10;3.93;;;2.47;;
4122;SDS011;2075;51.062;6.920;2022-08-02T11:37:55;5.17;;;4.67;;
4122;SDS011;2075;51.062;6.920;2022-08-02T11:40:43;2.60;;;2.40;;
4122;SDS011;2075;51.062;6.920;2022-08-02T11:43:29;2.80;;;2.60;;
4122;SDS011;2075;51.062;6.920;2022-08-02T11:46:14;2.53;;;2.43;;
4122;SDS011;2075;51.062;6.920;2022-08-02T11:49:11;2.97;;;2.20;;
4122;SDS011;2075;51.062;6.920;2022-08-02T11:52:00;2.43;;;2.33;;
4122;SDS011;2075;51.062;6.920;2022-08-02T11:54:49;2.20;;;2.10;;
4122;SDS011;2075;51.062;6.920;2022-08-02T11:57:34;2.23;;;2.13;;
4122;SDS011;2075;51.062;6.920;2022-08-02T12:00:21;6.30;;;2.20;;
4122;SDS011;2075;51.062;6.920;2022-08-02T12:03:06;2.83;;;2.50;;
4122;SDS011;2075;51.062;6.920;2022-08-02T12:05:53;4.40;;;2.60;;
4122;SDS011;2075;51.062;6.920;2022-08-02T12:08:38;2.40;;;2.17;;
4122;SDS011;2075;51.062;6.920;2022-08-02T12:11:24;4.80;;;2.50;;
4122;SDS011;2075;51.062;6.920;2022-08-02T12:14:09;2.20;;;2.00;;
4122;SDS011;2075;51.062;6.920;2022-08-02T12:16:55;2.37;;;2.27;;
4122;SDS011;2075;51.062;6.920;2022-08-02T12:19:59;5.50;;;2.27;;
4122;SDS011;2075;51.062;6.920;2022-08-02T12:22:46;5.73;;;2.03;;
4122;SDS011;2075;51.062;6.920;2022-08-02T12:25:31;2.53;;;2.40;;
4122;SDS011;2075;51.062;6.920;2022-08-02T12:28:18;3.10;;;2.90;;
4122;SDS011;2075;51.062;6.920;2022-08-02T12:31:05;6.07;;;2.67;;
4122;SDS011;2075;51.062;6.920;2022-08-02T12:33:52;2.30;;;2.20;;
4122;SDS011;2075;51.062;6.920;2022-08-02T12:36:38;2.67;;;2.47;;
4122;SDS011;2075;51.062;6.920;2022-08-02T12:39:33;6.50;;;2.40;;
4122;SDS011;2075;51.062;6.920;2022-08-02T12:42:20;2.30;;;2.10;;
4122;SDS011;2075;51.062;6.920;2022-08-02T12:45:06;3.70;;;3.50;;
4122;SDS011;2075;51.062;6.920;2022-08-02T12:47:52;4.60;;;4.20;;
4122;SDS011;2075;51.062;6.920;2022-08-02T12:50:39;2.27;;;2.17;;
4122;SDS011;2075;51.062;6.920;2022-08-02T12:53:30;2.47;;;2.27;;
4122;SDS011;2075;51.062;6.920;2022-08-02T12:56:27;2.33;;;2.13;;
4122;SDS011;2075;51.062;6.920;2022-08-02T12:59:13;2.60;;;2.40;;
4122;SDS011;2075;51.062;6.920;2022-08-02T13:02:00;3.13;;;2.20;;
4122;SDS011;2075;51.062;6.920;2022-08-02T13:04:46;5.53;;;2.50;;
4122;SDS011;2075;51.062;6.920;2022-08-02T13:07:32;5.53;;;3.53;;
4122;SDS011;2075;51.062;6.920;2022-08-02T13:10:19;2.13;;;2.03;;
4122;SDS011;2075;51.062;6.920;2022-08-02T13:13:06;2.43;;;2.30;;
4122;SDS011;2075;51.062;6.920;2022-08-02T13:15:52;2.80;;;2.67;;
4122;SDS011;2075;51.062;6.920;2022-08-02T13:18:37;2.87;;;2.50;;
4122;SDS011;2075;51.062;6.920;2022-08-02T13:21:23;4.63;;;2.47;;
4122;SDS011;2075;51.062;6.920;2022-08-02T13:24:09;2.60;;;2.40;;
4122;SDS011;2075;51.062;6.920;2022-08-02T13:26:57;2.13;;;2.03;;
4122;SDS011;2075;51.062;6.920;2022-08-02T13:29:44;2.67;;;2.47;;
4122;SDS011;2075;51.062;6.920;2022-08-02T13:32:29;2.60;;;2.17;;
4122;SDS011;2075;51.062;6.920;2022-08-02T13:35:15;4.33;;;2.10;;
4122;SDS011;2075;51.062;6.920;2022-08-02T13:38:00;2.70;;;2.17;;
4122;SDS011;2075;51.062;6.920;2022-08-02T13:40:46;2.20;;;2.10;;
4122;SDS011;2075;51.062;6.920;2022-08-02T13:43:49;2.33;;;2.23;;
4122;SDS011;2075;51.062;6.920;2022-08-02T13:46:36;2.13;;;2.03;;
4122;SDS011;2075;51.062;6.920;2022-08-02T13:49:22;2.27;;;2.17;;
4122;SDS011;2075;51.062;6.920;2022-08-02T13:52:08;1.97;;;1.87;;
4122;SDS011;2075;51.062;6.920;2022-08-02T13:54:54;2.77;;;2.57;;
4122;SDS011;2075;51.062;6.920;2022-08-02T13:57:40;1.93;;;1.93;;
4122;SDS011;2075;51.062;6.920;2022-08-02T14:00:25;3.50;;;3.27;;
4122;SDS011;2075;51.062;6.920;2022-08-02T14:03:12;4.00;;;2.10;;
4122;SDS011;2075;51.062;6.920;2022-08-02T14:05:58;2.67;;;2.47;;
4122;SDS011;2075;51.062;6.920;2022-08-02T14:08:43;5.67;;;2.07;;
4122;SDS011;2075;51.062;6.920;2022-08-02T14:11:28;2.53;;;2.43;;
4122;SDS011;2075;51.062;6.920;2022-08-02T14:14:14;2.43;;;2.33;;
4122;SDS011;2075;51.062;6.920;2022-08-02T14:17:00;3.97;;;3.00;;
4122;SDS011;2075;51.062;6.920;2022-08-02T14:19:46;2.50;;;2.40;;
4122;SDS011;2075;51.062;6.920;2022-08-02T14:22:33;4.30;;;2.67;;
4122;SDS011;2075;51.062;6.920;2022-08-02T14:25:19;2.63;;;2.53;;
4122;SDS011;2075;51.062;6.920;2022-08-02T14:28:05;3.53;;;2.67;;
4122;SDS011;2075;51.062;6.920;2022-08-02T14:30:50;2.80;;;2.53;;
4122;SDS011;2075;51.062;6.920;2022-08-02T14:33:36;2.60;;;2.50;;
4122;SDS011;2075;51.062;6.920;2022-08-02T14:36:22;2.23;;;2.13;;
4122;SDS011;2075;51.062;6.920;2022-08-02T14:39:08;4.60;;;2.50;;
4122;SDS011;2075;51.062;6.920;2022-08-02T14:41:55;2.67;;;2.33;;
4122;SDS011;2075;51.062;6.920;2022-08-02T14:44:40;2.30;;;2.10;;
4122;SDS011;2075;51.062;6.920;2022-08-02T14:47:25;2.20;;;2.10;;
4122;SDS011;2075;51.062;6.920;2022-08-02T14:50:11;2.67;;;2.47;;
4122;SDS011;2075;51.062;6.920;2022-08-02T14:52:58;2.80;;;2.60;;
4122;SDS011;2075;51.062;6.920;2022-08-02T14:55:44;2.23;;;2.10;;
4122;SDS011;2075;51.062;6.920;2022-08-02T14:58:29;2.47;;;2.37;;
4122;SDS011;2075;51.062;6.920;2022-08-02T15:01:15;3.17;;;2.53;;
4122;SDS011;2075;51.062;6.920;2022-08-02T15:04:01;2.40;;;2.00;;
4122;SDS011;2075;51.062;6.920;2022-08-02T15:06:46;2.07;;;1.97;;
4122;SDS011;2075;51.062;6.920;2022-08-02T15:09:33;2.10;;;2.07;;
4122;SDS011;2075;51.062;6.920;2022-08-02T15:12:19;2.13;;;2.03;;
4122;SDS011;2075;51.062;6.920;2022-08-02T15:15:05;2.33;;;2.23;;
4122;SDS011;2075;51.062;6.920;2022-08-02T15:17:51;2.37;;;2.17;;
4122;SDS011;2075;51.062;6.920;2022-08-02T15:20:36;2.30;;;2.20;;
4122;SDS011;2075;51.062;6.920;2022-08-02T15:23:22;2.50;;;2.40;;
4122;SDS011;2075;51.062;6.920;2022-08-02T15:26:09;5.27;;;2.20;;
4122;SDS011;2075;51.062;6.920;2022-08-02T15:28:55;3.47;;;2.50;;
4122;SDS011;2075;51.062;6.920;2022-08-02T15:31:40;4.53;;;2.10;;
4122;SDS011;2075;51.062;6.920;2022-08-02T15:34:26;2.30;;;2.20;;
4122;SDS011;2075;51.062;6.920;2022-08-02T15:37:11;2.27;;;2.17;;
4122;SDS011;2075;51.062;6.920;2022-08-02T15:39:57;2.43;;;2.27;;
4122;SDS011;2075;51.062;6.920;2022-08-02T15:42:44;2.87;;;2.67;;
4122;SDS011;2075;51.062;6.920;2022-08-02T15:45:30;2.27;;;2.17;;
4122;SDS011;2075;51.062;6.920;2022-08-02T15:48:16;4.73;;;1.90;;
4122;SDS011;2075;51.062;6.920;2022-08-02T15:51:01;2.30;;;2.20;;
4122;SDS011;2075;51.062;6.920;2022-08-02T15:53:47;2.43;;;2.23;;
4122;SDS011;2075;51.062;6.920;2022-08-02T15:56:33;2.40;;;2.20;;
4122;SDS011;2075;51.062;6.920;2022-08-02T15:59:20;2.40;;;2.30;;
4122;SDS011;2075;51.062;6.920;2022-08-02T16:02:05;3.37;;;2.10;;
4122;SDS011;2075;51.062;6.920;2022-08-02T16:04:51;2.23;;;2.03;;
4122;SDS011;2075;51.062;6.920;2022-08-02T16:07:36;2.17;;;2.00;;
4122;SDS011;2075;51.062;6.920;2022-08-02T16:10:22;2.10;;;2.00;;
4122;SDS011;2075;51.062;6.920;2022-08-02T16:13:08;2.23;;;2.13;;
4122;SDS011;2075;51.062;6.920;2022-08-02T16:16:08;2.20;;;2.00;;
4122;SDS011;2075;51.062;6.920;2022-08-02T16:18:54;2.80;;;2.60;;
4122;SDS011;2075;51.062;6.920;2022-08-02T16:21:40;2.47;;;2.37;;
4122;SDS011;2075;51.062;6.920;2022-08-02T16:24:26;4.10;;;2.27;;
4122;SDS011;2075;51.062;6.920;2022-08-02T16:27:11;2.10;;;2.10;;
4122;SDS011;2075;51.062;6.920;2022-08-02T16:29:57;2.33;;;2.20;;
4122;SDS011;2075;51.062;6.920;2022-08-02T16:32:43;2.07;;;1.97;;
4122;SDS011;2075;51.062;6.920;2022-08-02T16:35:29;2.83;;;2.07;;
4122;SDS011;2075;51.062;6.920;2022-08-02T16:38:14;2.03;;;1.93;;
4122;SDS011;2075;51.062;6.920;2022-08-02T16:40:59;2.60;;;2.00;;
4122;SDS011;2075;51.062;6.920;2022-08-02T16:43:45;1.90;;;1.80;;
4122;SDS011;2075;51.062;6.920;2022-08-02T16:46:30;2.33;;;1.80;;
4122;SDS011;2075;51.062;6.920;2022-08-02T16:49:17;6.10;;;2.43;;
4122;SDS011;2075;51.062;6.920;2022-08-02T16:52:03;2.50;;;2.30;;
4122;SDS011;2075;51.062;6.920;2022-08-02T16:54:48;6.00;;;2.67;;
4122;SDS011;2075;51.062;6.920;2022-08-02T16:57:34;2.03;;;1.83;;
4122;SDS011;2075;51.062;6.920;2022-08-02T17:00:23;2.63;;;2.43;;
4122;SDS011;2075;51.062;6.920;2022-08-02T17:03:08;2.37;;;2.10;;
4122;SDS011;2075;51.062;6.920;2022-08-02T17:05:56;2.37;;;2.27;;
4122;SDS011;2075;51.062;6.920;2022-08-02T17:08:41;2.53;;;2.17;;
4122;SDS011;2075;51.062;6.920;2022-08-02T17:11:26;2.30;;;2.20;;
4122;SDS011;2075;51.062;6.920;2022-08-02T17:14:12;2.10;;;2.00;;
4122;SDS011;2075;51.062;6.920;2022-08-02T17:16:57;2.97;;;1.90;;
4122;SDS011;2075;51.062;6.920;2022-08-02T17:19:43;3.37;;;1.73;;
4122;SDS011;2075;51.062;6.920;2022-08-02T17:22:29;2.03;;;1.90;;
4122;SDS011;2075;51.062;6.920;2022-08-02T17:25:15;2.30;;;2.20;;
4122;SDS011;2075;51.062;6.920;2022-08-02T17:28:00;2.33;;;2.10;;
4122;SDS011;2075;51.062;6.920;2022-08-02T17:30:46;2.40;;;2.30;;